sensor_id;sensor_type;location;lat;lon;timestamp;P1;durP1;ratioP1;P2;durP2;ratioP2
53925;SDS011;39836;52.754;6.866;2022-12-07T00:01:11;11.15;;;4.50;;
53925;SDS011;39836;52.754;6.866;2022-12-07T00:03:39;10.75;;;4.28;;
53925;SDS011;39836;52.754;6.866;2022-12-07T00:06:07;13.95;;;3.65;;
53925;SDS011;39836;52.754;6.866;2022-12-07T00:08:34;9.63;;;4.50;;
53925;SDS011;39836;52.754;6.866;2022-12-07T00:11:05;10.63;;;4.25;;
53925;SDS011;39836;52.754;6.866;2022-12-07T00:13:32;10.15;;;4.20;;
53925;SDS011;39836;52.754;6.866;2022-12-07T00:16:00;11.35;;;4.30;;
53925;SDS011;39836;52.754;6.866;2022-12-07T00:18:30;10.13;;;3.60;;
53925;SDS011;39836;52.754;6.866;2022-12-07T00:21:06;7.78;;;3.70;;
53925;SDS011;39836;52.754;6.866;2022-12-07T00:23:36;11.82;;;3.47;;
53925;SDS011;39836;52.754;6.866;2022-12-07T00:26:06;12.00;;;3.60;;
53925;SDS011;39836;52.754;6.866;2022-12-07T00:28:33;13.75;;;4.40;;
53925;SDS011;39836;52.754;6.866;2022-12-07T00:31:03;15.13;;;3.50;;
53925;SDS011;39836;52.754;6.866;2022-12-07T00:33:33;11.95;;;3.13;;
53925;SDS011;39836;52.754;6.866;2022-12-07T00:36:00;9.05;;;3.08;;
53925;SDS011;39836;52.754;6.866;2022-12-07T00:38:27;8.35;;;3.28;;
53925;SDS011;39836;52.754;6.866;2022-12-07T00:40:57;12.57;;;3.42;;
53925;SDS011;39836;52.754;6.866;2022-12-07T00:43:24;5.65;;;2.85;;
53925;SDS011;39836;52.754;6.866;2022-12-07T00:45:50;10.43;;;3.33;;
53925;SDS011;39836;52.754;6.866;2022-12-07T00:48:16;10.77;;;3.30;;
53925;SDS011;39836;52.754;6.866;2022-12-07T00:50:41;9.68;;;3.45;;
53925;SDS011;39836;52.754;6.866;2022-12-07T00:53:07;9.05;;;3.10;;
53925;SDS011;39836;52.754;6.866;2022-12-07T00:55:33;8.25;;;3.42;;
53925;SDS011;39836;52.754;6.866;2022-12-07T00:58:02;12.63;;;3.60;;
53925;SDS011;39836;52.754;6.866;2022-12-07T01:00:28;10.43;;;3.70;;
53925;SDS011;39836;52.754;6.866;2022-12-07T01:02:54;11.02;;;3.50;;
53925;SDS011;39836;52.754;6.866;2022-12-07T01:05:19;16.67;;;3.03;;
53925;SDS011;39836;52.754;6.866;2022-12-07T01:07:45;17.15;;;3.72;;
53925;SDS011;39836;52.754;6.866;2022-12-07T01:10:11;10.93;;;4.07;;
53925;SDS011;39836;52.754;6.866;2022-12-07T01:12:38;12.68;;;4.30;;
53925;SDS011;39836;52.754;6.866;2022-12-07T01:15:05;12.45;;;4.30;;
53925;SDS011;39836;52.754;6.866;2022-12-07T01:17:31;12.98;;;4.35;;
53925;SDS011;39836;52.754;6.866;2022-12-07T01:19:57;13.57;;;4.20;;
53925;SDS011;39836;52.754;6.866;2022-12-07T01:22:23;12.23;;;4.05;;
53925;SDS011;39836;52.754;6.866;2022-12-07T01:24:48;17.40;;;4.45;;
53925;SDS011;39836;52.754;6.866;2022-12-07T01:27:14;16.75;;;5.15;;
53925;SDS011;39836;52.754;6.866;2022-12-07T01:29:40;12.48;;;4.82;;
53925;SDS011;39836;52.754;6.866;2022-12-07T01:32:06;14.75;;;4.88;;
53925;SDS011;39836;52.754;6.866;2022-12-07T01:34:32;17.27;;;6.45;;
53925;SDS011;39836;52.754;6.866;2022-12-07T01:36:57;14.32;;;5.97;;
53925;SDS011;39836;52.754;6.866;2022-12-07T01:39:23;20.88;;;6.90;;
53925;SDS011;39836;52.754;6.866;2022-12-07T01:41:49;24.45;;;7.13;;
53925;SDS011;39836;52.754;6.866;2022-12-07T01:46:55;16.55;;;6.53;;
53925;SDS011;39836;52.754;6.866;2022-12-07T01:52:22;19.08;;;6.43;;
53925;SDS011;39836;52.754;6.866;2022-12-07T01:54:49;13.57;;;6.13;;
53925;SDS011;39836;52.754;6.866;2022-12-07T01:59:50;13.40;;;5.40;;
53925;SDS011;39836;52.754;6.866;2022-12-07T02:02:23;15.45;;;5.45;;
53925;SDS011;39836;52.754;6.866;2022-12-07T02:04:57;12.60;;;4.85;;
53925;SDS011;39836;52.754;6.866;2022-12-07T02:07:25;13.93;;;4.65;;
53925;SDS011;39836;52.754;6.866;2022-12-07T02:09:51;11.82;;;4.55;;
53925;SDS011;39836;52.754;6.866;2022-12-07T02:12:17;10.68;;;3.60;;
53925;SDS011;39836;52.754;6.866;2022-12-07T02:14:43;7.70;;;3.15;;
53925;SDS011;39836;52.754;6.866;2022-12-07T02:25:26;11.82;;;3.17;;
53925;SDS011;39836;52.754;6.866;2022-12-07T02:28:31;11.32;;;2.70;;
53925;SDS011;39836;52.754;6.866;2022-12-07T02:31:10;5.70;;;2.47;;
53925;SDS011;39836;52.754;6.866;2022-12-07T02:33:46;8.73;;;2.53;;
53925;SDS011;39836;52.754;6.866;2022-12-07T02:36:28;10.35;;;2.83;;
53925;SDS011;39836;52.754;6.866;2022-12-07T02:39:00;8.57;;;2.30;;
53925;SDS011;39836;52.754;6.866;2022-12-07T02:41:50;7.70;;;2.45;;
53925;SDS011;39836;52.754;6.866;2022-12-07T02:44:21;14.93;;;3.00;;
53925;SDS011;39836;52.754;6.866;2022-12-07T02:46:53;12.63;;;3.22;;
53925;SDS011;39836;52.754;6.866;2022-12-07T02:49:23;9.13;;;2.50;;
53925;SDS011;39836;52.754;6.866;2022-12-07T02:51:51;11.80;;;2.90;;
53925;SDS011;39836;52.754;6.866;2022-12-07T02:54:18;9.70;;;2.70;;
53925;SDS011;39836;52.754;6.866;2022-12-07T03:02:24;10.98;;;3.40;;
53925;SDS011;39836;52.754;6.866;2022-12-07T03:05:05;8.10;;;2.40;;
53925;SDS011;39836;52.754;6.866;2022-12-07T03:11:17;8.93;;;3.03;;
53925;SDS011;39836;52.754;6.866;2022-12-07T03:14:17;7.82;;;3.30;;
53925;SDS011;39836;52.754;6.866;2022-12-07T03:16:35;8.75;;;3.00;;
53925;SDS011;39836;52.754;6.866;2022-12-07T03:19:07;15.90;;;4.37;;
53925;SDS011;39836;52.754;6.866;2022-12-07T03:21:37;12.90;;;4.22;;
53925;SDS011;39836;52.754;6.866;2022-12-07T03:24:07;11.52;;;3.50;;
53925;SDS011;39836;52.754;6.866;2022-12-07T03:26:36;9.05;;;3.60;;
53925;SDS011;39836;52.754;6.866;2022-12-07T03:29:08;8.80;;;3.70;;
53925;SDS011;39836;52.754;6.866;2022-12-07T03:32:10;13.35;;;3.78;;
53925;SDS011;39836;52.754;6.866;2022-12-07T03:37:34;12.25;;;3.53;;
53925;SDS011;39836;52.754;6.866;2022-12-07T03:40:12;16.80;;;3.30;;
53925;SDS011;39836;52.754;6.866;2022-12-07T03:42:48;10.77;;;3.70;;
53925;SDS011;39836;52.754;6.866;2022-12-07T03:45:17;7.70;;;2.90;;
53925;SDS011;39836;52.754;6.866;2022-12-07T03:47:46;11.27;;;3.00;;
53925;SDS011;39836;52.754;6.866;2022-12-07T03:50:30;10.00;;;2.90;;
53925;SDS011;39836;52.754;6.866;2022-12-07T03:53:07;12.60;;;3.38;;
53925;SDS011;39836;52.754;6.866;2022-12-07T03:55:45;16.67;;;3.25;;
53925;SDS011;39836;52.754;6.866;2022-12-07T03:58:15;11.00;;;3.30;;
53925;SDS011;39836;52.754;6.866;2022-12-07T04:00:45;8.32;;;2.88;;
53925;SDS011;39836;52.754;6.866;2022-12-07T04:03:12;9.80;;;2.70;;
53925;SDS011;39836;52.754;6.866;2022-12-07T04:05:38;8.73;;;2.63;;
53925;SDS011;39836;52.754;6.866;2022-12-07T04:08:04;15.02;;;2.92;;
53925;SDS011;39836;52.754;6.866;2022-12-07T04:10:30;10.65;;;3.30;;
53925;SDS011;39836;52.754;6.866;2022-12-07T04:12:56;12.80;;;3.28;;
53925;SDS011;39836;52.754;6.866;2022-12-07T04:15:22;15.50;;;3.30;;
53925;SDS011;39836;52.754;6.866;2022-12-07T04:17:47;9.88;;;3.08;;
53925;SDS011;39836;52.754;6.866;2022-12-07T04:20:13;8.63;;;2.97;;
53925;SDS011;39836;52.754;6.866;2022-12-07T04:22:39;8.50;;;2.65;;
53925;SDS011;39836;52.754;6.866;2022-12-07T04:25:05;12.73;;;3.13;;
53925;SDS011;39836;52.754;6.866;2022-12-07T04:27:30;10.68;;;2.88;;
53925;SDS011;39836;52.754;6.866;2022-12-07T04:29:56;9.52;;;3.13;;
53925;SDS011;39836;52.754;6.866;2022-12-07T04:32:22;10.82;;;2.70;;
53925;SDS011;39836;52.754;6.866;2022-12-07T04:34:48;14.05;;;2.80;;
53925;SDS011;39836;52.754;6.866;2022-12-07T04:37:14;8.27;;;3.08;;
53925;SDS011;39836;52.754;6.866;2022-12-07T04:39:39;11.07;;;2.90;;
53925;SDS011;39836;52.754;6.866;2022-12-07T04:42:05;6.65;;;2.88;;
53925;SDS011;39836;52.754;6.866;2022-12-07T04:44:31;13.82;;;3.22;;
53925;SDS011;39836;52.754;6.866;2022-12-07T04:46:57;11.48;;;2.85;;
53925;SDS011;39836;52.754;6.866;2022-12-07T04:49:23;13.75;;;3.80;;
53925;SDS011;39836;52.754;6.866;2022-12-07T04:51:49;11.02;;;2.78;;
53925;SDS011;39836;52.754;6.866;2022-12-07T04:54:15;15.02;;;3.30;;
53925;SDS011;39836;52.754;6.866;2022-12-07T04:56:41;12.13;;;3.22;;
53925;SDS011;39836;52.754;6.866;2022-12-07T04:59:07;10.45;;;2.80;;
53925;SDS011;39836;52.754;6.866;2022-12-07T05:01:35;13.27;;;3.25;;
53925;SDS011;39836;52.754;6.866;2022-12-07T05:04:01;10.15;;;3.50;;
53925;SDS011;39836;52.754;6.866;2022-12-07T05:06:27;9.00;;;2.80;;
53925;SDS011;39836;52.754;6.866;2022-12-07T05:08:53;15.80;;;3.22;;
53925;SDS011;39836;52.754;6.866;2022-12-07T05:11:18;7.60;;;3.30;;
53925;SDS011;39836;52.754;6.866;2022-12-07T05:14:03;8.63;;;3.78;;
53925;SDS011;39836;52.754;6.866;2022-12-07T05:16:30;14.90;;;3.97;;
53925;SDS011;39836;52.754;6.866;2022-12-07T05:18:56;14.73;;;3.28;;
53925;SDS011;39836;52.754;6.866;2022-12-07T05:21:23;13.35;;;3.53;;
53925;SDS011;39836;52.754;6.866;2022-12-07T05:23:48;7.88;;;2.78;;
53925;SDS011;39836;52.754;6.866;2022-12-07T05:26:14;12.63;;;3.28;;
53925;SDS011;39836;52.754;6.866;2022-12-07T05:28:40;11.95;;;3.17;;
53925;SDS011;39836;52.754;6.866;2022-12-07T05:31:06;9.10;;;2.95;;
53925;SDS011;39836;52.754;6.866;2022-12-07T05:33:32;11.93;;;3.20;;
53925;SDS011;39836;52.754;6.866;2022-12-07T05:35:57;8.18;;;2.97;;
53925;SDS011;39836;52.754;6.866;2022-12-07T05:38:23;11.35;;;3.55;;
53925;SDS011;39836;52.754;6.866;2022-12-07T05:40:50;16.77;;;3.58;;
53925;SDS011;39836;52.754;6.866;2022-12-07T05:43:16;14.10;;;3.33;;
53925;SDS011;39836;52.754;6.866;2022-12-07T05:45:41;14.27;;;2.53;;
53925;SDS011;39836;52.754;6.866;2022-12-07T05:48:07;12.57;;;3.13;;
53925;SDS011;39836;52.754;6.866;2022-12-07T05:50:33;16.35;;;3.55;;
53925;SDS011;39836;52.754;6.866;2022-12-07T05:52:58;11.05;;;3.28;;
53925;SDS011;39836;52.754;6.866;2022-12-07T05:55:24;17.13;;;3.42;;
53925;SDS011;39836;52.754;6.866;2022-12-07T05:57:50;13.38;;;4.10;;
53925;SDS011;39836;52.754;6.866;2022-12-07T06:00:34;30.90;;;16.63;;
53925;SDS011;39836;52.754;6.866;2022-12-07T06:02:59;19.00;;;6.40;;
53925;SDS011;39836;52.754;6.866;2022-12-07T06:05:25;20.55;;;4.43;;
53925;SDS011;39836;52.754;6.866;2022-12-07T06:07:51;15.38;;;7.03;;
53925;SDS011;39836;52.754;6.866;2022-12-07T06:10:16;8.52;;;3.00;;
53925;SDS011;39836;52.754;6.866;2022-12-07T06:12:42;13.25;;;6.88;;
53925;SDS011;39836;52.754;6.866;2022-12-07T06:15:10;19.17;;;9.40;;
53925;SDS011;39836;52.754;6.866;2022-12-07T06:17:38;14.27;;;5.70;;
53925;SDS011;39836;52.754;6.866;2022-12-07T06:20:04;13.57;;;5.57;;
53925;SDS011;39836;52.754;6.866;2022-12-07T06:22:30;12.13;;;5.55;;
53925;SDS011;39836;52.754;6.866;2022-12-07T06:24:56;11.75;;;4.43;;
53925;SDS011;39836;52.754;6.866;2022-12-07T06:27:22;17.92;;;9.93;;
53925;SDS011;39836;52.754;6.866;2022-12-07T06:29:47;26.55;;;16.40;;
53925;SDS011;39836;52.754;6.866;2022-12-07T06:32:13;30.90;;;17.98;;
53925;SDS011;39836;52.754;6.866;2022-12-07T06:34:39;21.60;;;8.52;;
53925;SDS011;39836;52.754;6.866;2022-12-07T06:37:04;26.52;;;7.13;;
53925;SDS011;39836;52.754;6.866;2022-12-07T06:39:30;16.90;;;7.10;;
53925;SDS011;39836;52.754;6.866;2022-12-07T06:41:56;16.52;;;5.28;;
53925;SDS011;39836;52.754;6.866;2022-12-07T06:44:22;10.48;;;4.78;;
53925;SDS011;39836;52.754;6.866;2022-12-07T06:46:49;14.25;;;5.88;;
53925;SDS011;39836;52.754;6.866;2022-12-07T06:49:16;11.52;;;4.30;;
53925;SDS011;39836;52.754;6.866;2022-12-07T06:51:42;15.40;;;7.68;;
53925;SDS011;39836;52.754;6.866;2022-12-07T06:54:11;22.75;;;10.93;;
53925;SDS011;39836;52.754;6.866;2022-12-07T06:56:38;14.73;;;7.35;;
53925;SDS011;39836;52.754;6.866;2022-12-07T06:59:04;17.92;;;5.75;;
53925;SDS011;39836;52.754;6.866;2022-12-07T07:01:31;16.95;;;5.72;;
53925;SDS011;39836;52.754;6.866;2022-12-07T07:03:58;13.85;;;4.38;;
53925;SDS011;39836;52.754;6.866;2022-12-07T07:06:24;12.98;;;4.10;;
53925;SDS011;39836;52.754;6.866;2022-12-07T07:08:50;12.60;;;4.40;;
53925;SDS011;39836;52.754;6.866;2022-12-07T07:11:15;13.80;;;5.15;;
53925;SDS011;39836;52.754;6.866;2022-12-07T07:13:41;12.90;;;3.75;;
53925;SDS011;39836;52.754;6.866;2022-12-07T07:16:07;12.93;;;3.63;;
53925;SDS011;39836;52.754;6.866;2022-12-07T07:18:33;11.80;;;3.50;;
53925;SDS011;39836;52.754;6.866;2022-12-07T07:20:58;10.65;;;3.53;;
53925;SDS011;39836;52.754;6.866;2022-12-07T07:23:24;14.48;;;3.58;;
53925;SDS011;39836;52.754;6.866;2022-12-07T07:25:50;13.25;;;3.25;;
53925;SDS011;39836;52.754;6.866;2022-12-07T07:28:16;29.65;;;15.88;;
53925;SDS011;39836;52.754;6.866;2022-12-07T07:30:42;17.95;;;5.30;;
53925;SDS011;39836;52.754;6.866;2022-12-07T07:33:09;9.90;;;4.50;;
53925;SDS011;39836;52.754;6.866;2022-12-07T07:35:35;12.45;;;4.18;;
53925;SDS011;39836;52.754;6.866;2022-12-07T07:38:00;17.92;;;4.57;;
53925;SDS011;39836;52.754;6.866;2022-12-07T07:40:27;13.23;;;3.30;;
53925;SDS011;39836;52.754;6.866;2022-12-07T07:42:56;7.10;;;3.38;;
53925;SDS011;39836;52.754;6.866;2022-12-07T07:45:23;18.02;;;3.50;;
53925;SDS011;39836;52.754;6.866;2022-12-07T07:47:50;12.90;;;3.63;;
53925;SDS011;39836;52.754;6.866;2022-12-07T07:50:16;12.88;;;4.72;;
53925;SDS011;39836;52.754;6.866;2022-12-07T07:52:43;15.77;;;5.53;;
53925;SDS011;39836;52.754;6.866;2022-12-07T07:55:09;14.43;;;4.90;;
53925;SDS011;39836;52.754;6.866;2022-12-07T07:57:38;18.30;;;3.92;;
53925;SDS011;39836;52.754;6.866;2022-12-07T08:00:06;9.77;;;3.67;;
53925;SDS011;39836;52.754;6.866;2022-12-07T08:02:34;10.20;;;3.10;;
53925;SDS011;39836;52.754;6.866;2022-12-07T08:05:00;10.48;;;2.78;;
53925;SDS011;39836;52.754;6.866;2022-12-07T08:07:26;10.70;;;2.88;;
53925;SDS011;39836;52.754;6.866;2022-12-07T08:09:53;13.15;;;3.67;;
53925;SDS011;39836;52.754;6.866;2022-12-07T08:12:19;19.08;;;3.78;;
53925;SDS011;39836;52.754;6.866;2022-12-07T08:14:45;10.50;;;2.85;;
53925;SDS011;39836;52.754;6.866;2022-12-07T08:17:10;7.50;;;3.10;;
53925;SDS011;39836;52.754;6.866;2022-12-07T08:19:37;14.77;;;3.90;;
53925;SDS011;39836;52.754;6.866;2022-12-07T08:22:03;12.13;;;3.22;;
53925;SDS011;39836;52.754;6.866;2022-12-07T08:24:29;11.80;;;4.00;;
53925;SDS011;39836;52.754;6.866;2022-12-07T08:26:54;6.68;;;2.80;;
53925;SDS011;39836;52.754;6.866;2022-12-07T08:29:20;10.05;;;4.03;;
53925;SDS011;39836;52.754;6.866;2022-12-07T08:31:46;8.88;;;3.03;;
53925;SDS011;39836;52.754;6.866;2022-12-07T08:34:12;11.30;;;3.22;;
53925;SDS011;39836;52.754;6.866;2022-12-07T08:36:38;14.68;;;3.50;;
53925;SDS011;39836;52.754;6.866;2022-12-07T08:39:04;5.22;;;2.70;;
53925;SDS011;39836;52.754;6.866;2022-12-07T08:41:31;8.15;;;3.10;;
53925;SDS011;39836;52.754;6.866;2022-12-07T08:43:56;7.30;;;3.05;;
53925;SDS011;39836;52.754;6.866;2022-12-07T08:46:24;11.65;;;3.47;;
53925;SDS011;39836;52.754;6.866;2022-12-07T08:48:55;16.40;;;3.78;;
53925;SDS011;39836;52.754;6.866;2022-12-07T08:51:27;6.70;;;2.92;;
53925;SDS011;39836;52.754;6.866;2022-12-07T08:53:53;10.80;;;3.53;;
53925;SDS011;39836;52.754;6.866;2022-12-07T08:56:20;10.13;;;3.03;;
53925;SDS011;39836;52.754;6.866;2022-12-07T08:58:47;7.88;;;3.00;;
53925;SDS011;39836;52.754;6.866;2022-12-07T09:01:13;10.65;;;3.88;;
53925;SDS011;39836;52.754;6.866;2022-12-07T09:03:39;12.57;;;4.05;;
53925;SDS011;39836;52.754;6.866;2022-12-07T09:06:05;10.75;;;3.60;;
53925;SDS011;39836;52.754;6.866;2022-12-07T09:08:33;13.90;;;4.20;;
53925;SDS011;39836;52.754;6.866;2022-12-07T09:11:03;18.50;;;9.25;;
53925;SDS011;39836;52.754;6.866;2022-12-07T09:13:28;13.00;;;6.93;;
53925;SDS011;39836;52.754;6.866;2022-12-07T09:15:54;14.45;;;5.70;;
53925;SDS011;39836;52.754;6.866;2022-12-07T09:18:20;15.90;;;5.20;;
53925;SDS011;39836;52.754;6.866;2022-12-07T09:20:45;24.08;;;5.40;;
53925;SDS011;39836;52.754;6.866;2022-12-07T09:23:11;17.63;;;5.97;;
53925;SDS011;39836;52.754;6.866;2022-12-07T09:25:37;11.60;;;4.45;;
53925;SDS011;39836;52.754;6.866;2022-12-07T09:28:02;13.98;;;3.80;;
53925;SDS011;39836;52.754;6.866;2022-12-07T09:30:28;17.35;;;5.45;;
53925;SDS011;39836;52.754;6.866;2022-12-07T09:32:54;16.52;;;5.80;;
53925;SDS011;39836;52.754;6.866;2022-12-07T09:35:22;10.25;;;4.63;;
53925;SDS011;39836;52.754;6.866;2022-12-07T09:37:49;13.68;;;3.25;;
53925;SDS011;39836;52.754;6.866;2022-12-07T09:40:15;11.98;;;3.67;;
53925;SDS011;39836;52.754;6.866;2022-12-07T09:42:44;11.35;;;3.70;;
53925;SDS011;39836;52.754;6.866;2022-12-07T09:45:14;10.82;;;4.30;;
53925;SDS011;39836;52.754;6.866;2022-12-07T09:47:42;10.88;;;5.10;;
53925;SDS011;39836;52.754;6.866;2022-12-07T09:50:29;11.40;;;4.40;;
53925;SDS011;39836;52.754;6.866;2022-12-07T09:52:55;22.35;;;9.38;;
53925;SDS011;39836;52.754;6.866;2022-12-07T09:55:31;30.58;;;11.43;;
53925;SDS011;39836;52.754;6.866;2022-12-07T09:57:58;21.88;;;6.25;;
53925;SDS011;39836;52.754;6.866;2022-12-07T10:00:24;16.17;;;6.50;;
53925;SDS011;39836;52.754;6.866;2022-12-07T10:02:59;23.27;;;7.97;;
53925;SDS011;39836;52.754;6.866;2022-12-07T10:05:30;15.70;;;4.88;;
53925;SDS011;39836;52.754;6.866;2022-12-07T10:08:04;11.73;;;4.40;;
53925;SDS011;39836;52.754;6.866;2022-12-07T10:10:31;10.25;;;3.92;;
53925;SDS011;39836;52.754;6.866;2022-12-07T10:13:00;14.00;;;3.20;;
53925;SDS011;39836;52.754;6.866;2022-12-07T10:15:45;6.82;;;2.75;;
53925;SDS011;39836;52.754;6.866;2022-12-07T10:18:28;11.18;;;2.83;;
53925;SDS011;39836;52.754;6.866;2022-12-07T10:21:16;13.48;;;3.90;;
53925;SDS011;39836;52.754;6.866;2022-12-07T10:26:33;10.65;;;3.15;;
53925;SDS011;39836;52.754;6.866;2022-12-07T10:29:17;10.95;;;3.92;;
53925;SDS011;39836;52.754;6.866;2022-12-07T10:32:04;14.15;;;4.28;;
53925;SDS011;39836;52.754;6.866;2022-12-07T10:34:50;12.23;;;2.88;;
53925;SDS011;39836;52.754;6.866;2022-12-07T10:37:39;9.82;;;3.22;;
53925;SDS011;39836;52.754;6.866;2022-12-07T10:40:23;10.07;;;3.10;;
53925;SDS011;39836;52.754;6.866;2022-12-07T10:43:01;15.23;;;3.40;;
53925;SDS011;39836;52.754;6.866;2022-12-07T10:45:26;16.08;;;3.80;;
53925;SDS011;39836;52.754;6.866;2022-12-07T10:51:03;8.43;;;2.60;;
53925;SDS011;39836;52.754;6.866;2022-12-07T10:53:48;12.57;;;3.38;;
53925;SDS011;39836;52.754;6.866;2022-12-07T11:01:45;16.88;;;2.85;;
53925;SDS011;39836;52.754;6.866;2022-12-07T11:06:51;14.43;;;3.22;;
53925;SDS011;39836;52.754;6.866;2022-12-07T11:20:44;6.90;;;2.65;;
53925;SDS011;39836;52.754;6.866;2022-12-07T11:26:39;7.20;;;2.72;;
53925;SDS011;39836;52.754;6.866;2022-12-07T11:31:51;13.35;;;2.90;;
53925;SDS011;39836;52.754;6.866;2022-12-07T11:37:18;8.25;;;2.95;;
53925;SDS011;39836;52.754;6.866;2022-12-07T11:39:51;8.77;;;2.58;;
53925;SDS011;39836;52.754;6.866;2022-12-07T11:42:39;7.10;;;2.65;;
53925;SDS011;39836;52.754;6.866;2022-12-07T11:55:42;9.95;;;2.80;;
53925;SDS011;39836;52.754;6.866;2022-12-07T12:03:44;8.05;;;3.17;;
53925;SDS011;39836;52.754;6.866;2022-12-07T12:06:15;7.90;;;2.83;;
53925;SDS011;39836;52.754;6.866;2022-12-07T12:21:32;11.32;;;2.55;;
53925;SDS011;39836;52.754;6.866;2022-12-07T12:24:10;8.30;;;2.33;;
53925;SDS011;39836;52.754;6.866;2022-12-07T12:26:48;7.60;;;2.88;;
53925;SDS011;39836;52.754;6.866;2022-12-07T12:29:30;11.52;;;2.55;;
53925;SDS011;39836;52.754;6.866;2022-12-07T12:32:04;8.18;;;2.80;;
53925;SDS011;39836;52.754;6.866;2022-12-07T12:40:37;10.65;;;2.42;;
53925;SDS011;39836;52.754;6.866;2022-12-07T12:42:57;9.23;;;2.20;;
53925;SDS011;39836;52.754;6.866;2022-12-07T12:45:26;17.15;;;3.35;;
53925;SDS011;39836;52.754;6.866;2022-12-07T12:47:56;7.18;;;2.33;;
53925;SDS011;39836;52.754;6.866;2022-12-07T12:50:27;10.73;;;2.40;;
53925;SDS011;39836;52.754;6.866;2022-12-07T12:52:55;4.97;;;1.88;;
53925;SDS011;39836;52.754;6.866;2022-12-07T13:00:42;8.55;;;2.00;;
53925;SDS011;39836;52.754;6.866;2022-12-07T13:03:20;10.63;;;2.72;;
53925;SDS011;39836;52.754;6.866;2022-12-07T13:06:06;10.10;;;2.40;;
53925;SDS011;39836;52.754;6.866;2022-12-07T13:08:44;9.55;;;2.40;;
53925;SDS011;39836;52.754;6.866;2022-12-07T13:11:17;13.02;;;4.05;;
53925;SDS011;39836;52.754;6.866;2022-12-07T13:13:50;9.65;;;2.80;;
53925;SDS011;39836;52.754;6.866;2022-12-07T13:16:35;12.32;;;2.65;;
53925;SDS011;39836;52.754;6.866;2022-12-07T13:19:25;10.15;;;2.80;;
53925;SDS011;39836;52.754;6.866;2022-12-07T13:24:56;9.52;;;2.88;;
53925;SDS011;39836;52.754;6.866;2022-12-07T13:27:24;9.30;;;2.72;;
53925;SDS011;39836;52.754;6.866;2022-12-07T13:29:51;7.05;;;2.47;;
53925;SDS011;39836;52.754;6.866;2022-12-07T13:32:28;5.50;;;2.05;;
53925;SDS011;39836;52.754;6.866;2022-12-07T13:37:27;6.20;;;2.53;;
53925;SDS011;39836;52.754;6.866;2022-12-07T13:39:58;10.25;;;2.50;;
53925;SDS011;39836;52.754;6.866;2022-12-07T13:42:32;9.32;;;2.53;;
53925;SDS011;39836;52.754;6.866;2022-12-07T13:45:01;8.02;;;2.60;;
53925;SDS011;39836;52.754;6.866;2022-12-07T13:48:08;7.90;;;2.00;;
53925;SDS011;39836;52.754;6.866;2022-12-07T13:50:39;8.02;;;2.65;;
53925;SDS011;39836;52.754;6.866;2022-12-07T13:53:07;5.03;;;2.00;;
53925;SDS011;39836;52.754;6.866;2022-12-07T13:55:37;5.32;;;1.50;;
53925;SDS011;39836;52.754;6.866;2022-12-07T13:58:10;5.10;;;1.70;;
53925;SDS011;39836;52.754;6.866;2022-12-07T14:00:36;6.53;;;2.00;;
53925;SDS011;39836;52.754;6.866;2022-12-07T14:05:40;3.47;;;1.73;;
53925;SDS011;39836;52.754;6.866;2022-12-07T14:10:37;5.32;;;1.70;;
53925;SDS011;39836;52.754;6.866;2022-12-07T14:16:04;5.78;;;2.10;;
53925;SDS011;39836;52.754;6.866;2022-12-07T14:18:51;4.50;;;1.88;;
53925;SDS011;39836;52.754;6.866;2022-12-07T14:21:18;5.45;;;2.08;;
53925;SDS011;39836;52.754;6.866;2022-12-07T14:24:02;5.05;;;1.60;;
53925;SDS011;39836;52.754;6.866;2022-12-07T14:26:28;4.93;;;2.17;;
53925;SDS011;39836;52.754;6.866;2022-12-07T14:29:07;6.38;;;1.70;;
53925;SDS011;39836;52.754;6.866;2022-12-07T14:31:52;4.03;;;1.73;;
53925;SDS011;39836;52.754;6.866;2022-12-07T14:34:19;6.95;;;2.03;;
53925;SDS011;39836;52.754;6.866;2022-12-07T14:36:46;7.45;;;2.38;;
53925;SDS011;39836;52.754;6.866;2022-12-07T14:39:11;5.82;;;2.10;;
53925;SDS011;39836;52.754;6.866;2022-12-07T14:41:37;7.53;;;2.10;;
53925;SDS011;39836;52.754;6.866;2022-12-07T14:44:19;5.28;;;1.92;;
53925;SDS011;39836;52.754;6.866;2022-12-07T14:46:46;7.25;;;1.77;;
53925;SDS011;39836;52.754;6.866;2022-12-07T14:49:12;6.10;;;2.13;;
53925;SDS011;39836;52.754;6.866;2022-12-07T14:51:38;4.88;;;1.95;;
53925;SDS011;39836;52.754;6.866;2022-12-07T14:54:06;6.22;;;1.95;;
53925;SDS011;39836;52.754;6.866;2022-12-07T14:59:09;7.13;;;2.13;;
53925;SDS011;39836;52.754;6.866;2022-12-07T15:01:35;5.32;;;1.90;;
53925;SDS011;39836;52.754;6.866;2022-12-07T15:04:01;8.00;;;2.30;;
53925;SDS011;39836;52.754;6.866;2022-12-07T15:06:26;5.53;;;2.45;;
53925;SDS011;39836;52.754;6.866;2022-12-07T15:08:52;4.68;;;1.95;;
53925;SDS011;39836;52.754;6.866;2022-12-07T15:11:18;4.78;;;2.05;;
53925;SDS011;39836;52.754;6.866;2022-12-07T15:13:43;4.97;;;2.03;;
53925;SDS011;39836;52.754;6.866;2022-12-07T15:16:28;8.40;;;2.17;;
53925;SDS011;39836;52.754;6.866;2022-12-07T15:18:54;9.80;;;3.60;;
53925;SDS011;39836;52.754;6.866;2022-12-07T15:21:19;10.65;;;4.03;;
53925;SDS011;39836;52.754;6.866;2022-12-07T15:23:48;7.38;;;3.40;;
53925;SDS011;39836;52.754;6.866;2022-12-07T15:26:15;13.65;;;5.57;;
53925;SDS011;39836;52.754;6.866;2022-12-07T15:28:41;14.00;;;7.38;;
53925;SDS011;39836;52.754;6.866;2022-12-07T15:31:16;11.85;;;5.90;;
53925;SDS011;39836;52.754;6.866;2022-12-07T15:33:43;10.18;;;4.65;;
53925;SDS011;39836;52.754;6.866;2022-12-07T15:36:11;9.93;;;2.90;;
53925;SDS011;39836;52.754;6.866;2022-12-07T15:38:46;5.63;;;2.50;;
53925;SDS011;39836;52.754;6.866;2022-12-07T15:41:12;6.47;;;2.90;;
53925;SDS011;39836;52.754;6.866;2022-12-07T15:43:38;7.80;;;2.65;;
53925;SDS011;39836;52.754;6.866;2022-12-07T15:46:22;8.77;;;2.88;;
53925;SDS011;39836;52.754;6.866;2022-12-07T15:48:48;7.72;;;2.60;;
53925;SDS011;39836;52.754;6.866;2022-12-07T15:51:14;9.70;;;3.17;;
53925;SDS011;39836;52.754;6.866;2022-12-07T15:53:39;10.68;;;3.42;;
53925;SDS011;39836;52.754;6.866;2022-12-07T15:56:05;5.50;;;2.80;;
53925;SDS011;39836;52.754;6.866;2022-12-07T15:58:32;9.20;;;2.50;;
53925;SDS011;39836;52.754;6.866;2022-12-07T16:00:58;5.13;;;2.55;;
53925;SDS011;39836;52.754;6.866;2022-12-07T16:03:23;7.95;;;2.67;;
53925;SDS011;39836;52.754;6.866;2022-12-07T16:05:49;7.07;;;2.78;;
53925;SDS011;39836;52.754;6.866;2022-12-07T16:08:16;8.00;;;3.17;;
53925;SDS011;39836;52.754;6.866;2022-12-07T16:10:42;8.75;;;3.22;;
53925;SDS011;39836;52.754;6.866;2022-12-07T16:13:08;6.68;;;2.70;;
53925;SDS011;39836;52.754;6.866;2022-12-07T16:15:41;7.07;;;2.72;;
53925;SDS011;39836;52.754;6.866;2022-12-07T16:18:07;9.82;;;3.10;;
53925;SDS011;39836;52.754;6.866;2022-12-07T16:20:33;8.57;;;3.03;;
53925;SDS011;39836;52.754;6.866;2022-12-07T16:22:59;11.93;;;3.10;;
53925;SDS011;39836;52.754;6.866;2022-12-07T16:25:25;17.15;;;3.33;;
53925;SDS011;39836;52.754;6.866;2022-12-07T16:27:51;8.10;;;3.03;;
53925;SDS011;39836;52.754;6.866;2022-12-07T16:30:17;10.90;;;2.90;;
53925;SDS011;39836;52.754;6.866;2022-12-07T16:32:43;9.63;;;3.03;;
53925;SDS011;39836;52.754;6.866;2022-12-07T16:35:09;13.30;;;3.65;;
53925;SDS011;39836;52.754;6.866;2022-12-07T16:37:36;8.45;;;3.20;;
53925;SDS011;39836;52.754;6.866;2022-12-07T16:40:02;10.25;;;2.53;;
53925;SDS011;39836;52.754;6.866;2022-12-07T16:42:32;5.90;;;2.60;;
53925;SDS011;39836;52.754;6.866;2022-12-07T16:44:58;10.52;;;3.85;;
53925;SDS011;39836;52.754;6.866;2022-12-07T16:47:24;7.72;;;2.78;;
53925;SDS011;39836;52.754;6.866;2022-12-07T16:49:49;8.75;;;3.17;;